Time;durP1;ratioP1;P1;durP2;ratioP2;P2;SDS_P1;SDS_P2;PMS_P1;PMS_P2;Temp;Humidity;BMP_temperature;BMP_pressure;BME280_temperature;BME280_humidity;BME280_pressure;Samples;Min_cycle;Max_cycle;Signal;HPM_P1;HPM_P2
2023/02/27 06:50:02;;;;;;;1999.90;999.90;;;-0.50;99.90;;;;;;4980494;23;20096;-84
2023/02/27 06:52:28;;;;;;;1999.90;999.90;;;-0.40;99.90;;;;;;4920239;29;20050;-85
2023/02/27 06:54:53;;;;;;;1999.90;999.90;;;-0.40;99.90;;;;;;4932624;29;20031;-85
2023/02/27 06:57:19;;;;;;;1999.90;999.90;;;-0.40;99.90;;;;;;4941413;29;20385;-85
2023/02/27 06:59:45;;;;;;;1999.90;999.90;;;-0.30;99.90;;;;;;4925052;29;20047;-85
2023/02/27 07:02:12;;;;;;;1999.90;999.90;;;-0.30;99.90;;;;;;4940263;29;20019;-86
2023/02/27 07:04:38;;;;;;;1999.90;999.90;;;-0.30;99.90;;;;;;4916173;29;20035;-86
2023/02/27 07:07:04;;;;;;;1999.90;999.90;;;-0.30;99.90;;;;;;4939223;29;20028;-85
2023/02/27 07:09:30;;;;;;;1999.90;999.90;;;-0.30;99.90;;;;;;4945028;29;20040;-85
2023/02/27 07:11:55;;;;;;;1999.90;999.90;;;-0.20;99.90;;;;;;4939983;29;20031;-84
2023/02/27 07:14:21;;;;;;;1999.90;999.90;;;-0.20;99.90;;;;;;4946661;29;20035;-87
2023/02/27 07:16:49;;;;;;;1999.90;999.90;;;-0.10;99.90;;;;;;4934354;29;20102;-85
2023/02/27 07:19:17;;;;;;;1999.90;999.90;;;-0.10;99.90;;;;;;4934974;29;20076;-86
2023/02/27 07:21:43;;;;;;;1999.90;999.90;;;-0.10;99.90;;;;;;4935237;29;20044;-84
2023/02/27 07:24:09;;;;;;;1999.90;999.90;;;0.00;99.90;;;;;;4940303;29;20016;-85
2023/02/27 07:26:35;;;;;;;1999.90;999.90;;;0.00;99.90;;;;;;4936807;29;20087;-84
2023/02/27 07:29:00;;;;;;;1999.90;999.90;;;0.00;99.90;;;;;;4916628;29;20490;-87
2023/02/27 07:31:26;;;;;;;1999.90;999.90;;;0.10;99.90;;;;;;4932831;29;20059;-86
2023/02/27 07:33:52;;;;;;;1999.90;999.90;;;0.10;99.90;;;;;;4923485;29;20036;-84
2023/02/27 07:36:17;;;;;;;1999.90;999.90;;;0.20;99.90;;;;;;4942692;29;20028;-84
2023/02/27 07:38:43;;;;;;;1999.90;999.90;;;0.20;99.90;;;;;;4937018;29;20095;-82
2023/02/27 07:41:08;;;;;;;1999.90;999.90;;;0.30;99.90;;;;;;4940863;29;20036;-83
2023/02/27 07:43:34;;;;;;;1999.90;999.90;;;0.30;99.90;;;;;;4939513;29;20087;-83
2023/02/27 07:46:02;;;;;;;1999.90;999.90;;;0.40;99.90;;;;;;4937977;29;20020;-83
2023/02/27 07:48:29;;;;;;;1999.90;999.90;;;0.50;99.90;;;;;;4919976;29;20063;-83
2023/02/27 07:50:55;;;;;;;1999.90;999.90;;;0.50;99.90;;;;;;4923104;29;20054;-83
2023/02/27 07:53:20;;;;;;;1999.90;999.90;;;0.50;99.90;;;;;;4940413;29;20424;-83
2023/02/27 07:55:46;;;;;;;1999.90;999.90;;;0.60;99.90;;;;;;4941536;29;20063;-85
2023/02/27 07:58:11;;;;;;;1999.90;999.90;;;0.70;99.90;;;;;;4940568;29;20564;-83
2023/02/27 08:00:37;;;;;;;1999.90;999.90;;;0.90;99.90;;;;;;4930546;29;20040;-84
2023/02/27 08:03:03;;;;;;;1999.90;999.90;;;1.20;99.90;;;;;;4942886;29;20066;-76
2023/02/27 08:05:29;;;;;;;1999.90;999.90;;;3.30;99.90;;;;;;4933415;29;20055;-80
2023/02/27 08:07:55;;;;;;;1999.90;999.90;;;4.60;99.90;;;;;;4935614;29;20031;-78
2023/02/27 08:10:20;;;;;;;1999.90;999.90;;;3.90;99.90;;;;;;4931707;29;20028;-78
2023/02/27 08:12:46;;;;;;;1999.90;999.90;;;3.40;99.90;;;;;;4931843;29;20872;-78
2023/02/27 08:15:12;;;;;;;1999.90;999.90;;;4.00;99.90;;;;;;4917146;29;20118;-78
2023/02/27 08:17:37;;;;;;;1999.90;999.90;;;3.30;99.90;;;;;;4927076;29;20035;-79
2023/02/27 08:20:04;;;;;;;1999.90;999.90;;;2.80;99.90;;;;;;4934457;29;20036;-77
2023/02/27 08:22:31;;;;;;;1999.90;999.90;;;3.00;99.90;;;;;;4934096;29;20024;-79
2023/02/27 08:24:56;;;;;;;1999.90;999.90;;;2.40;99.90;;;;;;4933848;29;20377;-79
2023/02/27 08:27:22;;;;;;;1999.90;999.90;;;2.10;99.90;;;;;;4934501;29;20038;-78
2023/02/27 08:29:48;;;;;;;1999.90;999.90;;;2.00;99.90;;;;;;4936667;29;20158;-78
2023/02/27 08:32:14;;;;;;;1999.90;999.90;;;2.00;99.90;;;;;;4937241;29;20047;-74
2023/02/27 08:34:39;;;;;;;1999.90;999.90;;;2.10;99.90;;;;;;4932914;29;20061;-77
2023/02/27 08:37:05;;;;;;;1999.90;999.90;;;2.30;99.90;;;;;;4932295;29;20095;-77
2023/02/27 08:39:31;;;;;;;1999.90;999.90;;;2.60;99.90;;;;;;4932804;29;20104;-78
2023/02/27 08:41:56;;;;;;;1999.90;999.90;;;4.30;99.90;;;;;;4922662;29;20039;-77
2023/02/27 08:44:22;;;;;;;1999.90;999.90;;;6.00;99.90;;;;;;4931002;29;20039;-77
2023/02/27 08:46:48;;;;;;;1999.90;999.90;;;6.80;99.90;;;;;;4932279;29;20032;-78
2023/02/27 08:49:13;;;;;;;1999.90;999.90;;;7.80;99.40;;;;;;4933104;29;20115;-76
2023/02/27 08:51:39;;;;;;;1999.90;999.90;;;8.20;97.70;;;;;;4937547;29;20036;-78
2023/02/27 08:54:05;;;;;;;1999.90;999.90;;;8.00;97.60;;;;;;4940720;29;20102;-77
2023/02/27 08:56:32;;;;;;;1999.90;999.90;;;8.20;98.00;;;;;;4938555;29;20031;-77
2023/02/27 08:58:58;;;;;;;1999.90;999.90;;;8.90;97.00;;;;;;4933741;29;20030;-77
2023/02/27 09:01:26;;;;;;;1999.90;999.90;;;9.60;96.00;;;;;;4934560;29;20729;-78
2023/02/27 09:03:52;;;;;;;1999.90;999.90;;;9.60;95.40;;;;;;4931177;29;20170;-79
2023/02/27 09:06:18;;;;;;;1999.90;999.90;;;9.80;94.50;;;;;;4931319;29;20023;-79
2023/02/27 09:08:43;;;;;;;1999.90;999.90;;;10.10;95.20;;;;;;4937299;29;20039;-80
2023/02/27 09:11:09;;;;;;;1999.90;999.90;;;11.10;94.50;;;;;;4935823;29;20114;-78
2023/02/27 09:13:35;;;;;;;1999.90;999.90;;;10.90;93.70;;;;;;4936520;29;20035;-77
2023/02/27 09:16:00;;;;;;;1999.90;999.90;;;10.60;93.90;;;;;;4941907;29;20119;-78
2023/02/27 09:18:26;;;;;;;1999.90;999.90;;;10.70;93.90;;;;;;4938749;29;20059;-79
2023/02/27 09:20:51;;;;;;;1999.90;999.90;;;10.70;93.90;;;;;;4933739;29;20083;-80
2023/02/27 09:23:18;;;;;;;1999.90;999.90;;;11.50;93.50;;;;;;4931632;29;20040;-79
2023/02/27 09:25:46;;;;;;;1999.90;999.90;;;12.20;93.00;;;;;;4933594;29;20028;-80
2023/02/27 09:28:11;;;;;;;1999.90;999.90;;;11.40;92.10;;;;;;4938772;29;21330;-78
2023/02/27 09:30:37;;;;;;;1999.90;999.90;;;10.30;92.70;;;;;;4941362;29;20036;-77
2023/02/27 09:33:03;;;;;;;1999.90;999.90;;;10.90;93.00;;;;;;4932349;29;20071;-77
2023/02/27 09:35:28;;;;;;;1999.90;999.90;;;10.60;93.10;;;;;;4929929;29;20039;-76
2023/02/27 09:37:56;;;;;;;1999.90;999.90;;;11.10;92.40;;;;;;4934711;29;20102;-77
2023/02/27 09:40:31;;;;;;;1999.90;999.90;;;11.30;92.10;;;;;;4931864;29;20075;-77
2023/02/27 09:43:01;;;;;;;1999.90;999.90;;;11.50;92.10;;;;;;4931793;29;20042;-78
2023/02/27 09:45:30;;;;;;;1999.90;999.90;;;11.40;93.00;;;;;;4930055;29;20040;-76
2023/02/27 09:48:20;;;;;;;1999.90;999.90;;;10.60;92.50;;;;;;4931522;29;20035;-76
2023/02/27 09:50:51;;;;;;;1999.90;999.90;;;10.60;92.90;;;;;;4926255;29;20028;-78
2023/02/27 09:53:34;;;;;;;1999.90;999.90;;;9.40;93.90;;;;;;4932307;29;20122;-74
2023/02/27 09:56:12;;;;;;;1999.90;999.90;;;8.30;95.50;;;;;;4914661;29;20520;-74
2023/02/27 09:58:48;;;;;;;1999.90;999.90;;;6.90;96.90;;;;;;4932432;29;20038;-74
2023/02/27 10:01:32;;;;;;;1999.90;999.90;;;6.10;98.60;;;;;;4930578;29;20046;-75
2023/02/27 10:04:17;;;;;;;1999.90;999.90;;;5.60;99.80;;;;;;4931453;29;20031;-76
2023/02/27 10:06:51;;;;;;;1999.90;999.90;;;5.10;99.90;;;;;;4931604;29;20028;-76
2023/02/27 10:09:29;;;;;;;1999.90;999.90;;;5.10;99.90;;;;;;4930551;29;20036;-77
2023/02/27 10:11:57;;;;;;;1999.90;999.90;;;5.30;99.90;;;;;;4931412;29;20047;-77
2023/02/27 10:14:42;;;;;;;1999.90;999.90;;;5.20;99.90;;;;;;4914198;29;20034;-77
2023/02/27 10:17:50;;;;;;;1999.90;999.90;;;5.00;99.90;;;;;;4929767;29;20031;-77
2023/02/27 10:20:27;;;;;;;1999.90;999.90;;;5.10;99.90;;;;;;4931650;29;20051;-79
2023/02/27 10:22:54;;;;;;;1999.90;999.90;;;5.00;99.90;;;;;;4932039;29;20023;-80
2023/02/27 10:25:20;;;;;;;1999.90;999.90;;;5.30;99.90;;;;;;4934528;29;20509;-79
2023/02/27 10:27:48;;;;;;;1999.90;999.90;;;5.40;99.90;;;;;;4913361;29;21047;-79
2023/02/27 10:30:17;;;;;;;1999.90;999.90;;;5.50;99.90;;;;;;4928639;29;20070;-77
2023/02/27 10:32:44;;;;;;;1999.90;999.90;;;5.30;99.90;;;;;;4932397;29;20035;-77
2023/02/27 10:35:22;;;;;;;1999.90;999.90;;;5.10;99.90;;;;;;4932319;29;20114;-80
2023/02/27 10:37:56;;;;;;;1999.90;999.90;;;5.40;99.90;;;;;;4934167;29;20031;-79
2023/02/27 10:40:23;;;;;;;1999.90;999.90;;;5.40;99.90;;;;;;4930918;29;20028;-80
2023/02/27 10:42:52;;;;;;;1999.90;999.90;;;5.20;99.90;;;;;;4931164;29;20024;-77
2023/02/27 10:45:18;;;;;;;1999.90;999.90;;;5.20;99.90;;;;;;4931128;29;20560;-79
2023/02/27 10:47:54;;;;;;;1999.90;999.90;;;5.20;99.90;;;;;;5042542;28;20930;-77
2023/02/27 10:50:25;;;;;;;1999.90;999.90;;;5.30;99.90;;;;;;5026212;28;20041;-72
2023/02/27 10:52:55;;;;;;;1999.90;999.90;;;5.30;99.90;;;;;;5024572;28;20084;-72
2023/02/27 10:55:37;;;;;;;1999.90;999.90;;;5.50;99.90;;;;;;5025431;28;20538;-78
2023/02/27 10:58:04;;;;;;;1999.90;999.90;;;5.60;99.90;;;;;;5026533;28;20068;-78
2023/02/27 11:00:52;;;;;;;1999.90;999.90;;;5.40;99.90;;;;;;5034757;28;20087;-77
2023/02/27 11:03:29;;;;;;;1999.90;999.90;;;5.30;99.90;;;;;;5037355;28;20413;-71
2023/02/27 11:06:11;;;;;;;1999.90;999.90;;;5.50;99.90;;;;;;5025759;28;20044;-77
2023/02/27 11:08:36;;;;;;;1999.90;999.90;;;5.60;99.90;;;;;;5027756;28;20044;-77
2023/02/27 11:11:06;;;;;;;1999.90;999.90;;;5.90;99.90;;;;;;5032037;28;20105;-75
2023/02/27 11:13:41;;;;;;;1999.90;999.90;;;5.90;99.90;;;;;;5019749;28;20424;-72
2023/02/27 11:16:08;;;;;;;1999.90;999.90;;;5.80;99.90;;;;;;5030851;28;20108;-72
2023/02/27 11:18:37;;;;;;;1999.90;999.90;;;5.90;99.90;;;;;;5027974;28;20505;-72
2023/02/27 11:21:14;;;;;;;1999.90;999.90;;;5.90;99.90;;;;;;5024525;28;20041;-71
2023/02/27 11:23:54;;;;;;;1999.90;999.90;;;5.90;99.90;;;;;;5026876;28;20079;-78
2023/02/27 11:26:31;;;;;;;1999.90;999.90;;;5.90;99.90;;;;;;5024783;28;20029;-78
2023/02/27 11:29:11;;;;;;;1999.90;999.90;;;6.00;99.90;;;;;;5024349;28;20029;-78
2023/02/27 11:31:39;;;;;;;1999.90;999.90;;;6.00;99.90;;;;;;5023033;28;20396;-73
2023/02/27 11:34:07;;;;;;;1999.90;999.90;;;6.30;99.90;;;;;;5025874;28;20026;-78
2023/02/27 11:36:47;;;;;;;1999.90;999.90;;;6.30;99.90;;;;;;5027260;28;20496;-77
2023/02/27 11:39:46;;;;;;;1999.90;999.90;;;6.40;99.90;;;;;;5025768;28;20435;-77
2023/02/27 11:42:25;;;;;;;1999.90;999.90;;;6.50;99.90;;;;;;5023582;28;20607;-72
2023/02/27 11:44:58;;;;;;;1999.90;999.90;;;6.50;99.90;;;;;;5025643;28;20017;-78
2023/02/27 11:47:34;;;;;;;1999.90;999.90;;;6.60;99.90;;;;;;5024076;28;20054;-78
2023/02/27 11:50:31;;;;;;;1999.90;999.90;;;6.70;99.90;;;;;;5025002;28;20392;-78
2023/02/27 11:53:11;;;;;;;1999.90;999.90;;;6.70;99.90;;;;;;5017183;28;20038;-78
2023/02/27 11:55:37;;;;;;;1999.90;999.90;;;6.80;99.90;;;;;;5017183;28;20026;-72
2023/02/27 11:58:20;;;;;;;1999.90;999.90;;;7.00;99.90;;;;;;5012889;28;20034;-72
2023/02/27 12:01:01;;;;;;;1999.90;999.90;;;7.10;99.90;;;;;;5012784;28;20030;-72
2023/02/27 12:03:56;;;;;;;1999.90;999.90;;;7.50;99.90;;;;;;5008978;28;20026;-78
2023/02/27 12:06:39;;;;;;;1999.90;999.90;;;7.60;99.90;;;;;;5012600;28;20018;-78
2023/02/27 12:09:28;;;;;;;1999.90;999.90;;;7.90;99.60;;;;;;5007046;28;20033;-72
2023/02/27 12:11:55;;;;;;;1999.90;999.90;;;8.00;99.60;;;;;;5010632;28;20022;-72
2023/02/27 12:14:27;;;;;;;1999.90;999.90;;;7.80;98.80;;;;;;5005073;28;20486;-78
2023/02/27 12:17:00;;;;;;;1999.90;999.90;;;7.50;98.60;;;;;;5006168;28;20030;-79
2023/02/27 12:19:39;;;;;;;1999.90;999.90;;;7.30;97.70;;;;;;5008395;28;20038;-78
2023/02/27 12:22:21;;;;;;;1999.90;999.90;;;7.30;98.60;;;;;;4997458;28;20031;-72
2023/02/27 12:25:01;;;;;;;1999.90;999.90;;;7.50;98.50;;;;;;5003608;28;20448;-72
2023/02/27 12:27:57;;;;;;;1999.90;999.90;;;7.50;98.30;;;;;;4997308;28;20704;-73
2023/02/27 12:30:30;;;;;;;1999.90;999.90;;;7.60;98.10;;;;;;5006146;28;20365;-78
2023/02/27 12:33:11;;;;;;;1999.90;999.90;;;7.60;98.20;;;;;;5016469;28;20025;-77
2023/02/27 12:35:37;;;;;;;1999.90;999.90;;;7.50;98.70;;;;;;5035985;28;20045;-73
2023/02/27 12:38:03;;;;;;;1999.90;999.90;;;7.60;98.30;;;;;;5004794;28;20029;-78
2023/02/27 12:40:50;;;;;;;1999.90;999.90;;;7.70;98.40;;;;;;5005270;28;20022;-72
2023/02/27 12:43:34;;;;;;;1999.90;999.90;;;8.30;98.20;;;;;;5005041;28;20042;-76
2023/02/27 12:46:23;;;;;;;1999.90;999.90;;;9.10;97.60;;;;;;5003054;28;21498;-78
2023/02/27 12:49:17;;;;;;;1999.90;999.90;;;9.80;97.80;;;;;;5000060;28;20069;-73
2023/02/27 12:51:55;;;;;;;1999.90;999.90;;;9.60;96.90;;;;;;5001647;28;20026;-78
2023/02/27 12:54:39;;;;;;;1999.90;999.90;;;9.20;96.80;;;;;;5008670;28;20026;-77
2023/02/27 12:57:14;;;;;;;1999.90;999.90;;;8.70;96.50;;;;;;5006136;28;20037;-79
2023/02/27 12:59:46;;;;;;;1999.90;999.90;;;7.80;96.40;;;;;;5006086;28;20128;-78
2023/02/27 13:02:26;;;;;;;1999.90;999.90;;;8.30;98.40;;;;;;5004074;28;20105;-73
2023/02/27 13:05:10;;;;;;;1999.90;999.90;;;8.80;97.70;;;;;;5006961;28;20061;-79
2023/02/27 13:07:51;;;;;;;1999.90;999.90;;;9.50;96.80;;;;;;5002566;28;20069;-78
2023/02/27 13:10:40;;;;;;;1999.90;999.90;;;9.20;95.50;;;;;;5010985;28;20033;-79
2023/02/27 13:13:16;;;;;;;1999.90;999.90;;;9.30;96.40;;;;;;5002803;28;20096;-73
2023/02/27 13:16:00;;;;;;;1999.90;999.90;;;9.30;96.40;;;;;;4996838;28;20034;-73
2023/02/27 13:18:37;;;;;;;1999.90;999.90;;;9.70;96.10;;;;;;5001698;28;20026;-73
2023/02/27 13:21:24;;;;;;;1999.90;999.90;;;9.60;96.10;;;;;;5004228;28;20052;-78
2023/02/27 13:24:18;;;;;;;1999.90;999.90;;;9.30;96.30;;;;;;4998019;28;20029;-72
2023/02/27 13:26:53;;;;;;;1999.90;999.90;;;8.90;95.70;;;;;;5004351;28;20045;-73
2023/02/27 13:29:20;;;;;;;1999.90;999.90;;;9.30;96.30;;;;;;5008389;28;20033;-73
2023/02/27 13:32:04;;;;;;;1999.90;999.90;;;9.20;96.80;;;;;;5005949;28;20075;-79
2023/02/27 13:34:47;;;;;;;1999.90;999.90;;;9.00;96.70;;;;;;5001330;28;20022;-73
2023/02/27 13:37:13;;;;;;;1999.90;999.90;;;9.10;96.50;;;;;;4995809;28;20061;-78
2023/02/27 13:39:44;;;;;;;1999.90;999.90;;;8.80;96.50;;;;;;5009453;28;20065;-73
2023/02/27 13:42:25;;;;;;;1999.90;999.90;;;8.90;96.40;;;;;;5010659;28;20835;-73
2023/02/27 13:44:57;;;;;;;1999.90;999.90;;;8.60;96.20;;;;;;5035230;28;20421;-79
2023/02/27 13:47:28;;;;;;;1999.90;999.90;;;8.60;96.30;;;;;;4996081;28;20057;-79
2023/02/27 13:50:02;;;;;;;1999.90;999.90;;;9.00;96.20;;;;;;5041902;28;20034;-77
2023/02/27 13:52:33;;;;;;;1999.90;999.90;;;9.00;96.30;;;;;;5009491;28;20022;-73
2023/02/27 13:54:59;;;;;;;1999.90;999.90;;;9.10;95.60;;;;;;5013426;28;20030;-73
2023/02/27 13:57:36;;;;;;;1999.90;999.90;;;8.90;96.00;;;;;;5016089;28;20033;-76
2023/02/27 14:00:04;;;;;;;1999.90;999.90;;;9.00;96.60;;;;;;5013718;28;20053;-76
2023/02/27 14:02:32;;;;;;;1999.90;999.90;;;9.00;96.70;;;;;;5012807;28;20067;-73
2023/02/27 14:05:01;;;;;;;1999.90;999.90;;;9.20;96.60;;;;;;5009652;28;20042;-73
2023/02/27 14:07:31;;;;;;;1999.90;999.90;;;9.30;96.60;;;;;;5000290;28;20513;-73
2023/02/27 14:10:06;;;;;;;1999.90;999.90;;;9.60;96.20;;;;;;5008058;28;20374;-73
2023/02/27 14:12:37;;;;;;;1999.90;999.90;;;9.90;95.90;;;;;;5031414;28;20018;-73
2023/02/27 14:15:25;;;;;;;1999.90;999.90;;;9.80;96.00;;;;;;5009932;28;20022;-73
2023/02/27 14:17:56;;;;;;;1999.90;999.90;;;9.70;96.00;;;;;;5002262;28;20042;-73
2023/02/27 14:20:26;;;;;;;1999.90;999.90;;;9.50;95.90;;;;;;5002677;28;20018;-79
2023/02/27 14:23:13;;;;;;;1999.90;999.90;;;9.50;95.40;;;;;;5004752;28;20018;-73
2023/02/27 14:25:50;;;;;;;1999.90;999.90;;;9.40;96.10;;;;;;5003078;28;20062;-74
2023/02/27 14:28:33;;;;;;;1999.90;999.90;;;9.50;96.20;;;;;;5005289;28;20030;-73
2023/02/27 14:31:10;;;;;;;1999.90;999.90;;;9.30;95.80;;;;;;4996471;28;20508;-79
2023/02/27 14:33:40;;;;;;;1999.90;999.90;;;9.60;96.80;;;;;;4996424;28;20109;-73
2023/02/27 14:36:25;;;;;;;1999.90;999.90;;;9.60;96.00;;;;;;5010304;28;20029;-79
2023/02/27 14:38:54;;;;;;;1999.90;999.90;;;9.50;96.00;;;;;;5006437;28;20034;-73
2023/02/27 14:41:43;;;;;;;1999.90;999.90;;;9.70;95.80;;;;;;5001976;28;20026;-73
2023/02/27 14:44:24;;;;;;;1999.90;999.90;;;9.90;95.10;;;;;;4992907;28;20026;-74
2023/02/27 14:46:52;;;;;;;1999.90;999.90;;;10.10;94.80;;;;;;5008895;28;20053;-73
2023/02/27 14:49:28;;;;;;;1999.90;999.90;;;10.00;95.00;;;;;;5004714;28;20022;-73
2023/02/27 14:51:54;;;;;;;1999.90;999.90;;;9.90;94.70;;;;;;5003313;28;20030;-73
2023/02/27 14:54:25;;;;;;;1999.90;999.90;;;9.70;95.70;;;;;;4997081;28;20026;-80
2023/02/27 14:56:59;;;;;;;1999.90;999.90;;;9.60;95.10;;;;;;5000697;28;20037;-73
2023/02/27 14:59:32;;;;;;;1999.90;999.90;;;9.00;94.80;;;;;;4994809;28;20056;-73
2023/02/27 15:02:03;;;;;;;1999.90;999.90;;;9.90;95.90;;;;;;5003148;28;20543;-73
2023/02/27 15:04:31;;;;;;;1999.90;999.90;;;10.20;94.10;;;;;;4995969;28;20022;-78
2023/02/27 15:06:57;;;;;;;1999.90;999.90;;;10.50;94.50;;;;;;5002566;28;20061;-74
2023/02/27 15:09:36;;;;;;;1999.90;999.90;;;10.40;94.80;;;;;;5000172;28;20069;-78
2023/02/27 15:12:03;;;;;;;1999.90;999.90;;;10.80;94.80;;;;;;4996547;28;20056;-73
2023/02/27 15:14:38;;;;;;;1999.90;999.90;;;11.20;94.10;;;;;;4994152;28;20447;-73
2023/02/27 15:17:18;;;;;;;1999.90;999.90;;;11.30;94.40;;;;;;5001432;28;20037;-79
2023/02/27 15:19:52;;;;;;;1999.90;999.90;;;10.50;94.50;;;;;;5009128;28;20040;-82
2023/02/27 15:22:22;;;;;;;1999.90;999.90;;;9.80;94.10;;;;;;4994893;28;20516;-79
2023/02/27 15:24:48;;;;;;;1999.90;999.90;;;9.50;95.60;;;;;;5004626;28;20033;-72
2023/02/27 15:27:20;;;;;;;1999.90;999.90;;;10.70;94.00;;;;;;5008531;28;20068;-72
2023/02/27 15:29:57;;;;;;;1999.90;999.90;;;11.00;93.60;;;;;;4999584;28;20030;-78
2023/02/27 15:32:49;;;;;;;1999.90;999.90;;;11.30;93.50;;;;;;5008399;28;20029;-79
2023/02/27 15:35:19;;;;;;;1999.90;999.90;;;11.50;93.00;;;;;;4999343;28;20035;-78
2023/02/27 15:37:50;;;;;;;1999.90;999.90;;;11.90;92.70;;;;;;4997174;28;20030;-73
2023/02/27 15:40:22;;;;;;;1999.90;999.90;;;12.30;92.00;;;;;;5003179;28;20493;-78
2023/02/27 15:42:48;;;;;;;1999.90;999.90;;;13.80;91.30;;;;;;5005979;28;20045;-79
2023/02/27 15:45:19;;;;;;;1999.90;999.90;;;14.50;90.50;;;;;;5009996;28;20030;-76
2023/02/27 15:47:45;;;;;;;1999.90;999.90;;;14.80;90.00;;;;;;5008060;28;20046;-74
2023/02/27 15:50:37;;;;;;;1999.90;999.90;;;15.10;89.40;;;;;;5003375;28;20204;-73
2023/02/27 15:53:06;;;;;;;1999.90;999.90;;;14.70;88.60;;;;;;5001453;28;20397;-73
2023/02/27 15:55:36;;;;;;;1999.90;999.90;;;14.70;87.90;;;;;;4997938;28;20022;-73
2023/02/27 15:58:02;;;;;;;1999.90;999.90;;;14.80;88.50;;;;;;5002460;28;20030;-77
2023/02/27 16:00:30;;;;;;;1999.90;999.90;;;14.80;89.90;;;;;;5003710;28;20385;-80
2023/02/27 16:02:57;;;;;;;1999.90;999.90;;;14.80;88.20;;;;;;5006535;28;20076;-73
2023/02/27 16:05:29;;;;;;;1999.90;999.90;;;14.60;89.00;;;;;;5001634;28;20023;-73
2023/02/27 16:07:55;;;;;;;1999.90;999.90;;;14.30;88.80;;;;;;5026752;28;20025;-79
2023/02/27 16:10:26;;;;;;;1999.90;999.90;;;14.10;90.10;;;;;;5015729;28;20043;-79
2023/02/27 16:12:52;;;;;;;1999.90;999.90;;;14.40;88.50;;;;;;5009918;28;20029;-77
2023/02/27 16:15:31;;;;;;;1999.90;999.90;;;14.30;88.70;;;;;;5015192;28;20393;-73
2023/02/27 16:18:06;;;;;;;1999.90;999.90;;;14.20;88.80;;;;;;5024494;28;20378;-73
2023/02/27 16:20:53;;;;;;;1999.90;999.90;;;13.90;88.20;;;;;;5026268;28;20374;-72
2023/02/27 16:23:33;;;;;;;1999.90;999.90;;;13.30;89.20;;;;;;5025894;28;20044;-79
2023/02/27 16:26:25;;;;;;;1999.90;999.90;;;12.90;90.00;;;;;;5021972;28;20029;-79
2023/02/27 16:29:21;;;;;;;1999.90;999.90;;;13.70;89.50;;;;;;5027545;28;20117;-73
2023/02/27 16:31:54;;;;;;;1999.90;999.90;;;13.90;89.90;;;;;;5015104;28;20025;-80
2023/02/27 16:34:27;;;;;;;1999.90;999.90;;;13.50;89.20;;;;;;5026445;28;20365;-73
2023/02/27 16:36:58;;;;;;;1999.90;999.90;;;13.20;89.60;;;;;;5012299;28;20037;-78
2023/02/27 16:39:24;;;;;;;1999.90;999.90;;;13.40;89.80;;;;;;5013080;28;20496;-79
2023/02/27 16:41:55;;;;;;;1999.90;999.90;;;12.70;89.20;;;;;;5011657;28;20025;-73
2023/02/27 16:44:22;;;;;;;1999.90;999.90;;;12.90;90.20;;;;;;5016130;28;20032;-73
2023/02/27 16:46:48;;;;;;;1999.90;999.90;;;12.80;89.80;;;;;;5003056;28;20513;-79
2023/02/27 16:49:31;;;;;;;1999.90;999.90;;;12.10;90.20;;;;;;5006777;28;20026;-72
2023/02/27 16:51:57;;;;;;;1999.90;999.90;;;12.30;90.40;;;;;;5003107;28;20029;-79
2023/02/27 16:54:24;;;;;;;1999.90;999.90;;;11.80;90.50;;;;;;5006140;28;20030;-72
2023/02/27 16:56:50;;;;;;;1999.90;999.90;;;11.80;90.70;;;;;;5004161;28;20061;-79
2023/02/27 16:59:33;;;;;;;1999.90;999.90;;;11.70;90.80;;;;;;5002711;28;20066;-79
2023/02/27 17:02:01;;;;;;;1999.90;999.90;;;11.20;90.80;;;;;;5004461;28;20038;-79
2023/02/27 17:04:28;;;;;;;1999.90;999.90;;;11.10;91.30;;;;;;4993942;28;20030;-79
2023/02/27 17:06:55;;;;;;;1999.90;999.90;;;11.00;91.50;;;;;;4993953;28;20033;-80
2023/02/27 17:09:22;;;;;;;1999.90;999.90;;;10.50;91.40;;;;;;4993649;28;20029;-72
2023/02/27 17:11:48;;;;;;;1999.90;999.90;;;10.30;91.60;;;;;;4994470;28;20499;-72
2023/02/27 17:14:14;;;;;;;1999.90;999.90;;;9.80;92.20;;;;;;4994285;28;20504;-72
2023/02/27 17:16:40;;;;;;;1999.90;999.90;;;9.50;92.40;;;;;;4993481;28;20030;-80
2023/02/27 17:19:05;;;;;;;1999.90;999.90;;;9.40;92.80;;;;;;4993961;28;20029;-72
2023/02/27 17:21:31;;;;;;;1999.90;999.90;;;9.20;93.30;;;;;;4993854;28;20026;-72
2023/02/27 17:23:57;;;;;;;1999.90;999.90;;;9.00;93.40;;;;;;4994167;28;20378;-72
2023/02/27 17:26:23;;;;;;;1999.90;999.90;;;8.70;93.70;;;;;;4993702;28;20033;-79
2023/02/27 17:28:48;;;;;;;1999.90;999.90;;;8.50;94.10;;;;;;4993691;28;20452;-79
2023/02/27 17:31:15;;;;;;;1999.90;999.90;;;8.40;94.50;;;;;;4993558;28;20102;-79
2023/02/27 17:33:41;;;;;;;1999.90;999.90;;;7.40;95.30;;;;;;4993819;28;20041;-71
2023/02/27 17:36:08;;;;;;;1999.90;999.90;;;6.70;96.70;;;;;;4993776;28;20481;-71
2023/02/27 17:38:35;;;;;;;1999.90;999.90;;;6.20;97.50;;;;;;4999555;28;20079;-79
2023/02/27 17:41:08;;;;;;;1999.90;999.90;;;6.00;98.50;;;;;;5032923;28;20068;-79
2023/02/27 17:43:34;;;;;;;1999.90;999.90;;;5.70;98.90;;;;;;5032977;28;20143;-79
2023/02/27 17:46:00;;;;;;;1999.90;999.90;;;5.60;98.70;;;;;;5023082;28;20482;-79
2023/02/27 17:48:26;;;;;;;1999.90;999.90;;;5.50;98.70;;;;;;5012711;28;20097;-71
2023/02/27 17:50:51;;;;;;;1999.90;999.90;;;5.40;98.90;;;;;;5012664;28;20036;-72
2023/02/27 17:53:17;;;;;;;1999.90;999.90;;;5.30;98.60;;;;;;5012684;28;20512;-79
2023/02/27 17:55:43;;;;;;;1999.90;999.90;;;5.20;98.90;;;;;;5012502;28;20388;-79
2023/02/27 17:58:08;;;;;;;1999.90;999.90;;;5.20;99.00;;;;;;5013095;28;20025;-79
2023/02/27 18:00:34;;;;;;;1999.90;999.90;;;5.10;99.20;;;;;;5013063;28;20088;-72
2023/02/27 18:03:00;;;;;;;1999.90;999.90;;;5.00;99.50;;;;;;5011154;28;20026;-71
2023/02/27 18:05:26;;;;;;;1999.90;999.90;;;5.00;99.40;;;;;;4993104;28;20034;-79
2023/02/27 18:07:52;;;;;;;1999.90;999.90;;;4.90;99.80;;;;;;4993492;28;20038;-79
2023/02/27 18:10:17;;;;;;;1999.90;999.90;;;4.80;99.80;;;;;;4993331;28;20481;-78
2023/02/27 18:12:43;;;;;;;1999.90;999.90;;;4.70;99.90;;;;;;4993151;28;20046;-71
2023/02/27 18:15:09;;;;;;;1999.90;999.90;;;4.70;99.90;;;;;;4992911;28;20026;-71
2023/02/27 18:17:35;;;;;;;1999.90;999.90;;;4.60;99.90;;;;;;4992451;28;20034;-79
2023/02/27 18:20:00;;;;;;;1999.90;999.90;;;4.60;99.90;;;;;;4993282;28;20042;-71
2023/02/27 18:22:28;;;;;;;1999.90;999.90;;;4.50;99.90;;;;;;4993059;28;20493;-79
2023/02/27 18:24:54;;;;;;;1999.90;999.90;;;4.50;99.90;;;;;;4992903;28;20077;-79
2023/02/27 18:27:21;;;;;;;1999.90;999.90;;;4.40;99.90;;;;;;4992655;28;20030;-71
2023/02/27 18:29:48;;;;;;;1999.90;999.90;;;4.30;99.90;;;;;;4993176;28;20023;-71
2023/02/27 18:32:13;;;;;;;1999.90;999.90;;;4.30;99.90;;;;;;4992992;28;20037;-71
2023/02/27 18:34:40;;;;;;;1999.90;999.90;;;4.20;99.90;;;;;;4992733;28;20022;-79
2023/02/27 18:37:06;;;;;;;1999.90;999.90;;;4.10;99.90;;;;;;4992726;28;20497;-79
2023/02/27 18:39:31;;;;;;;1999.90;999.90;;;4.00;99.90;;;;;;5013951;28;20029;-71
2023/02/27 18:41:57;;;;;;;1999.90;999.90;;;3.90;99.90;;;;;;5032250;28;20037;-71
2023/02/27 18:44:23;;;;;;;1999.90;999.90;;;3.80;99.90;;;;;;5031942;28;20480;-78
2023/02/27 18:46:49;;;;;;;1999.90;999.90;;;3.80;99.90;;;;;;5015797;28;20053;-71
2023/02/27 18:49:15;;;;;;;1999.90;999.90;;;3.80;99.90;;;;;;5012180;28;20069;-78
2023/02/27 18:51:41;;;;;;;1999.90;999.90;;;3.80;99.90;;;;;;5011515;28;20428;-79
2023/02/27 18:54:13;;;;;;;1999.90;999.90;;;3.80;99.90;;;;;;5011112;28;20511;-71
2023/02/27 18:56:39;;;;;;;1999.90;999.90;;;3.80;99.90;;;;;;5012217;28;20077;-79
2023/02/27 18:59:06;;;;;;;1999.90;999.90;;;3.70;99.90;;;;;;5012169;28;20061;-71
2023/02/27 19:01:37;;;;;;;1999.90;999.90;;;3.60;99.90;;;;;;5012131;28;20022;-79
2023/02/27 19:04:05;;;;;;;1999.90;999.90;;;3.60;99.90;;;;;;5002606;28;20022;-71
2023/02/27 19:06:39;;;;;;;1999.90;999.90;;;3.50;99.90;;;;;;4992374;28;20081;-71
2023/02/27 19:09:06;;;;;;;1999.90;999.90;;;3.50;99.90;;;;;;4995654;28;20046;-71
2023/02/27 19:11:32;;;;;;;1999.90;999.90;;;3.40;99.90;;;;;;4996460;28;20053;-78
2023/02/27 19:13:59;;;;;;;1999.90;999.90;;;3.40;99.90;;;;;;5028037;28;20050;-71
2023/02/27 19:16:25;;;;;;;1999.90;999.90;;;3.40;99.90;;;;;;4995994;28;20034;-78